Time;durP1;ratioP1;P1;durP2;ratioP2;P2;SDS_P1;SDS_P2;PMS_P1;PMS_P2;Temp;Humidity;BMP_temperature;BMP_pressure;BME280_temperature;BME280_humidity;BME280_pressure;Samples;Min_cycle;Max_cycle;Signal;HPM_P1;HPM_P2
2023/05/09 00:02:02;;;;;;;6.45;3.00;;;15.90;99.90;;;;;;5112637;28;20028;-79
2023/05/09 00:04:29;;;;;;;11.13;3.53;;;15.80;99.90;;;;;;5111952;28;20035;-79
2023/05/09 00:06:54;;;;;;;9.27;3.47;;;15.90;99.90;;;;;;5111623;28;20032;-81
2023/05/09 00:09:20;;;;;;;7.40;3.60;;;15.90;99.90;;;;;;5111614;28;20507;-80
2023/05/09 00:11:46;;;;;;;9.40;3.30;;;15.80;99.90;;;;;;5093338;28;20054;-80
2023/05/09 00:14:12;;;;;;;10.27;3.40;;;15.90;99.90;;;;;;5111738;28;20440;-80
2023/05/09 00:16:39;;;;;;;8.15;3.10;;;15.90;99.90;;;;;;5111621;28;20569;-80
2023/05/09 00:19:05;;;;;;;8.30;3.13;;;15.90;99.90;;;;;;5111806;28;20059;-79
2023/05/09 00:21:31;;;;;;;10.20;3.10;;;15.90;99.90;;;;;;5111852;28;20020;-78
2023/05/09 00:23:57;;;;;;;8.68;3.25;;;15.90;99.90;;;;;;5111588;28;20063;-79
2023/05/09 00:26:23;;;;;;;9.98;3.10;;;15.80;99.90;;;;;;5111459;28;20073;-78
2023/05/09 00:28:49;;;;;;;8.10;3.08;;;15.70;99.90;;;;;;5111983;28;20031;-79
2023/05/09 00:31:14;;;;;;;9.18;3.17;;;15.80;99.90;;;;;;5111372;28;20023;-78
2023/05/09 00:33:40;;;;;;;9.23;3.33;;;15.80;99.90;;;;;;5111674;28;20106;-78
2023/05/09 00:36:06;;;;;;;10.02;3.53;;;15.80;99.90;;;;;;5111865;28;20430;-78
2023/05/09 00:38:32;;;;;;;9.52;3.88;;;15.80;99.90;;;;;;5111630;28;20031;-78
2023/05/09 00:40:58;;;;;;;9.32;3.50;;;15.80;99.90;;;;;;5111599;28;20027;-78
2023/05/09 00:43:23;;;;;;;7.90;3.67;;;15.70;99.90;;;;;;5111477;28;20034;-79
2023/05/09 00:45:49;;;;;;;9.90;3.80;;;15.70;99.90;;;;;;5111914;28;20027;-78
2023/05/09 00:48:15;;;;;;;10.07;3.78;;;15.70;99.90;;;;;;5111421;28;20508;-79
2023/05/09 00:50:41;;;;;;;8.82;3.63;;;15.70;99.90;;;;;;5112178;28;20496;-78
2023/05/09 00:53:08;;;;;;;11.05;3.60;;;15.60;99.90;;;;;;5111507;28;20145;-78
2023/05/09 00:55:34;;;;;;;8.57;3.65;;;15.60;99.90;;;;;;5112068;28;20035;-79
2023/05/09 00:58:01;;;;;;;7.90;3.28;;;15.60;99.90;;;;;;5111593;28;20553;-79
2023/05/09 01:00:27;;;;;;;14.13;3.83;;;15.60;99.90;;;;;;5111337;28;20369;-79
2023/05/09 01:02:55;;;;;;;11.85;3.40;;;15.60;99.90;;;;;;5111202;28;20089;-80
2023/05/09 01:05:24;;;;;;;9.52;3.67;;;15.60;99.90;;;;;;5111541;28;20032;-79
2023/05/09 01:07:50;;;;;;;12.50;3.72;;;15.60;99.90;;;;;;5111062;28;20361;-79
2023/05/09 01:10:37;;;;;;;12.30;3.35;;;15.60;99.90;;;;;;5111244;28;20022;-79
2023/05/09 01:13:22;;;;;;;11.32;3.97;;;15.70;99.90;;;;;;5111221;28;20046;-79
2023/05/09 01:16:09;;;;;;;10.60;4.03;;;15.70;99.90;;;;;;5112046;28;20027;-79
2023/05/09 01:18:45;;;;;;;11.00;4.07;;;15.60;99.90;;;;;;5111460;28;20658;-79
2023/05/09 01:21:16;;;;;;;10.32;4.00;;;15.60;99.90;;;;;;5110737;28;20028;-78
2023/05/09 01:23:45;;;;;;;9.75;3.85;;;15.60;99.90;;;;;;5110884;28;20046;-79
2023/05/09 01:26:20;;;;;;;13.00;4.80;;;15.60;99.90;;;;;;5113632;28;20035;-79
2023/05/09 01:29:23;;;;;;;12.45;3.97;;;15.70;99.90;;;;;;5114760;28;20063;-79
2023/05/09 01:31:50;;;;;;;10.45;4.00;;;15.60;99.90;;;;;;5115132;28;20030;-78
2023/05/09 01:34:17;;;;;;;10.18;4.05;;;15.60;99.90;;;;;;5096251;28;20031;-79
2023/05/09 01:36:45;;;;;;;9.35;3.85;;;15.60;99.90;;;;;;5115012;28;20498;-79
2023/05/09 01:39:12;;;;;;;11.80;4.40;;;15.60;99.90;;;;;;5114085;28;20020;-79
2023/05/09 01:41:38;;;;;;;11.30;4.03;;;15.60;99.90;;;;;;5114680;28;20055;-80
2023/05/09 01:44:07;;;;;;;11.43;4.20;;;15.60;99.90;;;;;;5096527;28;20117;-78
2023/05/09 01:46:34;;;;;;;13.95;4.43;;;15.60;99.90;;;;;;5115103;28;20028;-79
2023/05/09 01:49:01;;;;;;;10.70;4.63;;;15.60;99.90;;;;;;5114513;28;20028;-79
2023/05/09 01:51:30;;;;;;;13.18;4.53;;;15.60;99.90;;;;;;5114358;28;20526;-79
2023/05/09 01:53:58;;;;;;;11.05;4.22;;;15.60;99.90;;;;;;5114461;28;20388;-78
2023/05/09 01:56:26;;;;;;;12.55;4.25;;;15.60;99.90;;;;;;5114166;28;20052;-79
2023/05/09 01:58:52;;;;;;;14.77;4.10;;;15.60;99.90;;;;;;5114596;28;20088;-79
2023/05/09 02:01:19;;;;;;;13.48;4.32;;;15.60;99.90;;;;;;5114342;28;20177;-78
2023/05/09 02:03:49;;;;;;;13.27;4.63;;;15.60;99.90;;;;;;5114499;28;20096;-79
2023/05/09 02:06:17;;;;;;;17.50;5.40;;;15.50;99.90;;;;;;5114754;28;20019;-79
2023/05/09 02:08:43;;;;;;;13.50;4.50;;;15.50;99.90;;;;;;5113950;28;20106;-79
2023/05/09 02:11:08;;;;;;;14.43;4.45;;;15.50;99.90;;;;;;5114095;28;20455;-79
2023/05/09 02:13:36;;;;;;;13.07;4.70;;;15.50;99.90;;;;;;5113906;28;20048;-79
2023/05/09 02:16:02;;;;;;;13.93;5.25;;;15.60;99.90;;;;;;5114469;28;20035;-79
2023/05/09 02:18:28;;;;;;;16.52;5.28;;;15.60;99.90;;;;;;5113876;28;20019;-79
2023/05/09 02:20:53;;;;;;;10.70;4.90;;;15.60;99.90;;;;;;5113645;28;20507;-78
2023/05/09 02:23:19;;;;;;;14.38;4.75;;;15.60;99.90;;;;;;5113777;28;20027;-78
2023/05/09 02:25:46;;;;;;;13.02;5.00;;;15.60;99.90;;;;;;5113685;28;20480;-78
2023/05/09 02:28:12;;;;;;;15.02;5.05;;;15.50;99.90;;;;;;5113667;28;20027;-78
2023/05/09 02:30:43;;;;;;;15.30;5.30;;;15.60;99.90;;;;;;5113625;28;20071;-77
2023/05/09 02:33:11;;;;;;;15.32;5.05;;;15.50;99.90;;;;;;5113778;28;20031;-78
2023/05/09 02:35:38;;;;;;;15.93;4.80;;;15.60;99.90;;;;;;5113911;28;20020;-78
2023/05/09 02:38:05;;;;;;;15.50;4.65;;;15.50;99.90;;;;;;5113985;28;20511;-77
2023/05/09 02:40:32;;;;;;;15.93;5.60;;;15.60;99.90;;;;;;5113641;28;20027;-77
2023/05/09 02:42:58;;;;;;;13.15;5.28;;;15.50;99.90;;;;;;5113309;28;20492;-78
2023/05/09 02:45:24;;;;;;;15.90;4.95;;;15.60;99.90;;;;;;5113666;28;20034;-78
2023/05/09 02:47:49;;;;;;;14.18;5.18;;;15.60;99.90;;;;;;5113532;28;20100;-78
2023/05/09 02:50:15;;;;;;;17.23;5.35;;;15.60;99.90;;;;;;5114027;28;20027;-78
2023/05/09 02:52:41;;;;;;;17.52;5.30;;;15.60;99.90;;;;;;5112883;28;20042;-77
2023/05/09 02:55:07;;;;;;;19.25;5.47;;;15.60;99.90;;;;;;5113403;28;20054;-77
2023/05/09 02:57:33;;;;;;;16.48;5.43;;;15.60;99.90;;;;;;5112989;28;20062;-78
2023/05/09 02:59:59;;;;;;;18.95;5.80;;;15.60;99.90;;;;;;5113856;27;20484;-78
2023/05/09 03:02:25;;;;;;;16.65;5.45;;;15.60;99.90;;;;;;5112898;28;20030;-77
2023/05/09 03:04:50;;;;;;;14.52;4.60;;;15.70;99.90;;;;;;5112642;28;20063;-78
2023/05/09 03:07:16;;;;;;;18.92;5.50;;;15.70;99.90;;;;;;5112551;28;20033;-77
2023/05/09 03:09:41;;;;;;;17.45;5.75;;;15.60;99.90;;;;;;5112614;28;20039;-78
2023/05/09 03:12:07;;;;;;;16.50;5.53;;;15.60;99.90;;;;;;5112707;28;20058;-78
2023/05/09 03:14:33;;;;;;;19.77;5.88;;;15.60;99.90;;;;;;5112729;28;20027;-77
2023/05/09 03:16:58;;;;;;;16.17;5.13;;;15.60;99.90;;;;;;5112583;28;20055;-78
2023/05/09 03:19:24;;;;;;;15.82;5.93;;;15.60;99.90;;;;;;5113350;28;20026;-78
2023/05/09 03:21:50;;;;;;;14.93;5.50;;;15.60;99.90;;;;;;5112116;28;20495;-78
2023/05/09 03:24:15;;;;;;;16.02;5.50;;;15.60;99.90;;;;;;5112421;28;20408;-78
2023/05/09 03:26:41;;;;;;;15.57;5.22;;;15.60;99.90;;;;;;5112350;28;20395;-77
2023/05/09 03:29:07;;;;;;;15.85;4.97;;;15.60;99.90;;;;;;5112931;28;20038;-78
2023/05/09 03:31:33;;;;;;;15.60;5.25;;;15.60;99.90;;;;;;5112511;28;20055;-76
2023/05/09 03:33:58;;;;;;;18.35;5.85;;;15.60;99.90;;;;;;5112552;28;20039;-78
2023/05/09 03:36:25;;;;;;;12.98;4.97;;;15.60;99.90;;;;;;5111933;28;20440;-78
2023/05/09 03:38:50;;;;;;;16.20;5.05;;;15.70;99.90;;;;;;5112116;28;20047;-78
2023/05/09 03:41:17;;;;;;;20.65;5.82;;;15.70;99.90;;;;;;5094288;28;20032;-78
2023/05/09 03:43:43;;;;;;;17.27;5.72;;;15.60;99.90;;;;;;5112010;28;20047;-77
2023/05/09 03:46:09;;;;;;;14.48;5.05;;;15.70;99.90;;;;;;5112694;28;20488;-77
2023/05/09 03:48:35;;;;;;;16.42;5.45;;;15.70;99.90;;;;;;5111410;28;20044;-78
2023/05/09 03:51:01;;;;;;;17.10;5.68;;;15.60;99.90;;;;;;5111984;28;20123;-77
2023/05/09 03:53:27;;;;;;;14.32;4.90;;;15.60;99.90;;;;;;5111903;28;20147;-77
2023/05/09 03:55:53;;;;;;;14.32;5.03;;;15.60;99.90;;;;;;5112028;28;20040;-77
2023/05/09 03:58:18;;;;;;;11.48;4.70;;;15.60;99.90;;;;;;5112204;28;20062;-76
2023/05/09 04:00:44;;;;;;;13.20;5.00;;;15.60;99.90;;;;;;5112280;28;20020;-77
2023/05/09 04:03:10;;;;;;;13.50;4.88;;;15.60;99.90;;;;;;5112002;28;20447;-76
2023/05/09 04:05:36;;;;;;;15.43;5.35;;;15.60;99.90;;;;;;5111568;28;20019;-76
2023/05/09 04:08:02;;;;;;;15.88;5.43;;;15.50;99.90;;;;;;5111937;28;20381;-76
2023/05/09 04:10:29;;;;;;;13.52;4.72;;;15.60;99.90;;;;;;5111967;28;20400;-76
2023/05/09 04:12:55;;;;;;;12.75;4.97;;;15.60;99.90;;;;;;5111441;28;20048;-76
2023/05/09 04:15:21;;;;;;;12.25;5.22;;;15.60;99.90;;;;;;5111987;28;20024;-76
2023/05/09 04:17:46;;;;;;;14.38;5.18;;;15.60;99.90;;;;;;5093648;28;20104;-76
2023/05/09 04:20:12;;;;;;;14.23;4.88;;;15.60;99.90;;;;;;5111548;28;20537;-76
2023/05/09 04:22:38;;;;;;;15.60;5.00;;;15.60;99.90;;;;;;5111643;28;20051;-75
2023/05/09 04:25:05;;;;;;;14.52;4.93;;;15.60;99.90;;;;;;5111748;28;20059;-76
2023/05/09 04:27:31;;;;;;;18.38;5.32;;;15.60;99.90;;;;;;5111711;28;20487;-75
2023/05/09 04:29:57;;;;;;;14.40;5.00;;;15.60;99.90;;;;;;5112471;28;20047;-76
2023/05/09 04:32:22;;;;;;;14.85;5.20;;;15.70;99.90;;;;;;5111670;28;20431;-76
2023/05/09 04:34:48;;;;;;;16.17;5.35;;;15.70;99.90;;;;;;5111601;28;20032;-75
2023/05/09 04:37:14;;;;;;;17.73;5.65;;;15.60;99.90;;;;;;5093199;28;20384;-75
2023/05/09 04:39:40;;;;;;;13.85;4.82;;;15.70;99.90;;;;;;5111657;28;20028;-75
2023/05/09 04:42:05;;;;;;;13.63;5.03;;;15.70;99.90;;;;;;5112327;28;20032;-74
2023/05/09 04:44:32;;;;;;;18.02;5.03;;;15.70;99.90;;;;;;5111516;28;20492;-76
2023/05/09 04:46:57;;;;;;;13.77;5.13;;;15.70;99.90;;;;;;5111167;28;20387;-76
2023/05/09 04:49:23;;;;;;;15.55;5.28;;;15.70;99.90;;;;;;5111339;28;20032;-75
2023/05/09 04:51:50;;;;;;;13.38;4.82;;;15.70;99.90;;;;;;5111588;28;20392;-75
2023/05/09 04:54:16;;;;;;;13.63;4.85;;;15.70;99.90;;;;;;5111312;28;20035;-75
2023/05/09 04:56:42;;;;;;;12.50;4.80;;;15.70;99.90;;;;;;5111595;28;20028;-75
2023/05/09 04:59:07;;;;;;;15.02;4.82;;;15.60;99.90;;;;;;5111586;28;20077;-74
2023/05/09 05:01:33;;;;;;;12.13;4.40;;;15.70;99.90;;;;;;5114756;28;20027;-75
2023/05/09 05:03:59;;;;;;;15.73;4.93;;;15.70;99.90;;;;;;5115144;28;20024;-75
2023/05/09 05:06:24;;;;;;;12.63;4.68;;;15.60;99.90;;;;;;5115084;28;20575;-75
2023/05/09 05:08:50;;;;;;;10.80;4.72;;;15.70;99.90;;;;;;5114926;28;20036;-75
2023/05/09 05:11:16;;;;;;;14.57;4.68;;;15.70;99.90;;;;;;5115143;28;20804;-76
2023/05/09 05:13:43;;;;;;;12.35;4.38;;;15.60;99.90;;;;;;5115119;28;20067;-75
2023/05/09 05:16:09;;;;;;;11.88;4.10;;;15.70;99.90;;;;;;5115028;28;20030;-75
2023/05/09 05:18:34;;;;;;;11.38;4.43;;;15.60;99.90;;;;;;5114797;28;20031;-74
2023/05/09 05:21:00;;;;;;;13.07;4.35;;;15.60;99.90;;;;;;5114879;28;20028;-75
2023/05/09 05:23:26;;;;;;;12.43;4.50;;;15.60;99.90;;;;;;5115121;28;20044;-75
2023/05/09 05:25:51;;;;;;;12.73;4.35;;;15.60;99.90;;;;;;5115008;28;20053;-75
2023/05/09 05:28:17;;;;;;;12.95;4.65;;;15.70;99.90;;;;;;5115504;28;20030;-75
2023/05/09 05:30:43;;;;;;;12.18;4.03;;;15.70;99.90;;;;;;5114999;28;20392;-76
2023/05/09 05:33:09;;;;;;;11.30;4.50;;;15.80;99.90;;;;;;5114587;28;20459;-75
2023/05/09 05:35:34;;;;;;;12.38;4.43;;;15.70;99.90;;;;;;5114661;28;20032;-75
2023/05/09 05:38:00;;;;;;;12.50;4.55;;;15.70;99.90;;;;;;5096689;28;20034;-76
2023/05/09 05:40:26;;;;;;;12.60;4.65;;;15.60;99.90;;;;;;5114748;28;20475;-77
2023/05/09 05:42:51;;;;;;;12.80;4.68;;;15.70;99.90;;;;;;5114447;28;20027;-77
2023/05/09 05:45:17;;;;;;;14.15;4.68;;;15.60;99.90;;;;;;5114681;28;20055;-76
2023/05/09 05:47:43;;;;;;;13.30;4.85;;;15.60;99.90;;;;;;5114380;28;20061;-76
2023/05/09 05:50:10;;;;;;;11.55;4.63;;;15.60;99.90;;;;;;5114028;28;20085;-77
2023/05/09 05:52:40;;;;;;;13.43;5.25;;;15.70;99.90;;;;;;5114971;28;20505;-78
2023/05/09 05:55:07;;;;;;;9.93;4.53;;;15.70;99.90;;;;;;5114551;28;20059;-77
2023/05/09 05:57:37;;;;;;;14.90;5.40;;;15.70;99.90;;;;;;5113834;28;20106;-79
2023/05/09 06:00:07;;;;;;;15.70;5.65;;;15.60;99.90;;;;;;5114243;28;20043;-78
2023/05/09 06:02:32;;;;;;;15.15;5.20;;;15.70;99.90;;;;;;5114546;28;20015;-79
2023/05/09 06:04:58;;;;;;;14.35;5.18;;;15.70;99.90;;;;;;5095822;28;20068;-77
2023/05/09 06:07:24;;;;;;;16.35;5.32;;;15.70;99.90;;;;;;5114048;28;20149;-76
2023/05/09 06:09:49;;;;;;;14.43;5.05;;;15.60;99.90;;;;;;5114254;28;20081;-76
2023/05/09 06:12:15;;;;;;;11.75;5.03;;;15.70;99.90;;;;;;5113302;28;20100;-75
2023/05/09 06:14:42;;;;;;;15.65;5.82;;;15.70;99.90;;;;;;5113732;28;20131;-73
2023/05/09 06:17:08;;;;;;;15.85;5.47;;;15.70;99.90;;;;;;5114181;28;20044;-75
2023/05/09 06:19:33;;;;;;;14.43;5.30;;;15.70;99.90;;;;;;5113862;28;20054;-75
2023/05/09 06:21:59;;;;;;;13.40;4.90;;;15.70;99.90;;;;;;5113728;28;20023;-74
2023/05/09 06:24:25;;;;;;;12.85;5.50;;;15.70;99.90;;;;;;5112752;28;20118;-73
2023/05/09 06:26:51;;;;;;;13.38;4.88;;;15.80;99.90;;;;;;5112481;28;20023;-75
2023/05/09 06:29:16;;;;;;;13.05;4.93;;;15.80;99.90;;;;;;5112380;28;20027;-74
2023/05/09 06:31:42;;;;;;;15.00;5.45;;;15.70;99.90;;;;;;5112818;28;20408;-74
2023/05/09 06:34:08;;;;;;;13.63;5.82;;;15.80;99.90;;;;;;5112690;28;20499;-73
2023/05/09 06:36:34;;;;;;;13.35;5.50;;;15.80;99.90;;;;;;5112974;28;20019;-73
2023/05/09 06:39:00;;;;;;;10.88;4.43;;;15.80;99.90;;;;;;5111939;28;20032;-73
2023/05/09 06:41:26;;;;;;;15.65;5.15;;;15.80;99.90;;;;;;5112584;28;20099;-72
2023/05/09 06:43:52;;;;;;;11.25;5.30;;;15.80;99.90;;;;;;5112078;28;20116;-72
2023/05/09 06:46:18;;;;;;;10.05;4.85;;;15.80;99.90;;;;;;5112197;28;20510;-72
2023/05/09 06:48:44;;;;;;;9.82;4.72;;;15.80;99.90;;;;;;5113496;28;20422;-72
2023/05/09 06:51:10;;;;;;;8.27;4.20;;;15.80;99.90;;;;;;5112534;28;20023;-72
2023/05/09 06:53:36;;;;;;;10.23;4.75;;;15.70;99.90;;;;;;5113876;28;20606;-71
2023/05/09 06:56:02;;;;;;;7.15;3.90;;;15.80;99.90;;;;;;5112387;28;20043;-74
2023/05/09 06:58:28;;;;;;;8.15;3.65;;;15.80;99.90;;;;;;5111949;28;20066;-72
2023/05/09 07:00:54;;;;;;;6.80;3.72;;;15.80;99.90;;;;;;5112021;28;20492;-72
2023/05/09 07:03:20;;;;;;;7.35;3.90;;;15.80;99.90;;;;;;5111913;28;20039;-72
2023/05/09 07:05:46;;;;;;;9.32;3.70;;;15.80;99.90;;;;;;5112285;28;20024;-73
2023/05/09 07:08:12;;;;;;;6.72;3.65;;;15.80;99.90;;;;;;5111485;28;20028;-72
2023/05/09 07:10:38;;;;;;;6.82;3.38;;;15.80;99.90;;;;;;5111423;28;20020;-72
2023/05/09 07:13:04;;;;;;;8.77;3.60;;;15.80;99.90;;;;;;5111294;28;20165;-72
2023/05/09 07:15:30;;;;;;;6.75;3.58;;;15.90;99.90;;;;;;5111495;28;20232;-72
2023/05/09 07:17:55;;;;;;;8.70;3.40;;;15.90;99.90;;;;;;5110972;28;20035;-72
2023/05/09 07:20:21;;;;;;;7.63;3.75;;;15.90;99.90;;;;;;5111898;28;20028;-71
2023/05/09 07:22:47;;;;;;;7.80;3.42;;;16.00;99.90;;;;;;5109999;28;20104;-73
2023/05/09 07:25:13;;;;;;;10.23;3.47;;;16.00;99.90;;;;;;5111183;28;20028;-73
2023/05/09 07:27:38;;;;;;;6.57;3.00;;;16.00;99.90;;;;;;5111176;28;20020;-73
2023/05/09 07:30:05;;;;;;;5.88;3.30;;;16.10;99.90;;;;;;5111749;28;20034;-73
2023/05/09 07:32:31;;;;;;;7.78;2.90;;;16.10;99.90;;;;;;5111343;28;20559;-73
2023/05/09 07:34:57;;;;;;;8.30;3.40;;;16.10;99.90;;;;;;5111550;28;20024;-73
2023/05/09 07:37:23;;;;;;;9.27;3.25;;;16.00;99.90;;;;;;5111838;28;20557;-74
2023/05/09 07:39:50;;;;;;;11.60;3.65;;;16.00;99.90;;;;;;5111625;28;21749;-74
2023/05/09 07:42:16;;;;;;;12.25;4.30;;;16.00;99.90;;;;;;5108898;28;20065;-73
2023/05/09 07:44:42;;;;;;;9.18;3.38;;;16.00;99.90;;;;;;5111088;28;20046;-74
2023/05/09 07:47:08;;;;;;;7.28;3.25;;;16.00;99.90;;;;;;5110564;28;20098;-73
2023/05/09 07:49:34;;;;;;;8.07;3.17;;;16.00;99.90;;;;;;5111203;28;20027;-75
2023/05/09 07:52:00;;;;;;;9.00;3.30;;;16.00;99.90;;;;;;5111344;28;20046;-74
2023/05/09 07:54:26;;;;;;;8.75;3.03;;;16.00;99.90;;;;;;5110815;28;20484;-70
2023/05/09 07:56:52;;;;;;;9.20;3.38;;;16.00;99.90;;;;;;5110701;28;20380;-71
2023/05/09 07:59:18;;;;;;;10.85;3.75;;;16.00;99.90;;;;;;5093101;28;20092;-73
2023/05/09 08:01:44;;;;;;;11.30;3.90;;;16.00;99.90;;;;;;5092821;28;20043;-71
2023/05/09 08:04:10;;;;;;;15.90;4.28;;;15.90;99.90;;;;;;5110756;28;20076;-72
2023/05/09 08:06:36;;;;;;;10.93;4.18;;;16.00;99.90;;;;;;5111137;28;20091;-72
2023/05/09 08:09:03;;;;;;;9.93;4.28;;;16.00;99.90;;;;;;5110493;28;20032;-72
2023/05/09 08:11:31;;;;;;;15.32;4.40;;;16.00;99.90;;;;;;5110506;28;20035;-72
2023/05/09 08:13:57;;;;;;;12.40;4.50;;;15.90;99.90;;;;;;5110000;28;20209;-72
2023/05/09 08:16:22;;;;;;;12.48;3.97;;;16.00;99.90;;;;;;5110619;28;20108;-71
2023/05/09 08:18:48;;;;;;;12.93;4.47;;;16.00;99.90;;;;;;5109406;28;20037;-72
2023/05/09 08:21:14;;;;;;;13.18;4.30;;;16.00;99.90;;;;;;5107941;28;20016;-72
2023/05/09 08:23:40;;;;;;;12.43;4.10;;;15.90;99.90;;;;;;5110595;28;20058;-71
2023/05/09 08:26:06;;;;;;;9.60;3.90;;;16.00;99.90;;;;;;5110926;28;20020;-71
2023/05/09 08:28:31;;;;;;;12.25;3.78;;;16.00;99.90;;;;;;5110374;28;20115;-71
2023/05/09 08:30:57;;;;;;;9.68;3.58;;;16.00;99.90;;;;;;5110548;28;20019;-70
2023/05/09 08:33:23;;;;;;;12.90;3.75;;;16.00;99.90;;;;;;5110759;28;20449;-71
2023/05/09 08:35:52;;;;;;;10.38;3.35;;;16.00;99.90;;;;;;5114454;28;20608;-70
2023/05/09 08:38:18;;;;;;;7.40;3.03;;;16.10;99.90;;;;;;5114514;27;20054;-70
2023/05/09 08:40:45;;;;;;;6.50;2.67;;;16.10;99.90;;;;;;5114108;28;20051;-70
2023/05/09 08:43:11;;;;;;;6.68;2.40;;;16.00;99.90;;;;;;5114630;27;20583;-70
2023/05/09 08:45:46;;;;;;;8.02;2.60;;;16.10;99.90;;;;;;5114375;28;20045;-70
2023/05/09 08:48:14;;;;;;;6.28;2.50;;;16.10;99.90;;;;;;5114285;27;20032;-70
2023/05/09 08:50:40;;;;;;;6.25;2.38;;;16.10;99.90;;;;;;5114493;28;20040;-69
2023/05/09 08:53:06;;;;;;;5.22;1.92;;;16.10;99.90;;;;;;5096494;28;20486;-71
2023/05/09 08:55:32;;;;;;;7.28;2.38;;;16.10;99.90;;;;;;5115036;28;20107;-71
2023/05/09 08:57:58;;;;;;;7.78;2.78;;;16.10;99.90;;;;;;5115001;27;20030;-71
2023/05/09 09:00:26;;;;;;;6.15;2.30;;;16.10;99.90;;;;;;5115223;28;20520;-70
2023/05/09 09:02:53;;;;;;;5.22;2.05;;;16.20;99.90;;;;;;5115140;28;20434;-71
2023/05/09 09:05:22;;;;;;;5.65;2.22;;;16.20;99.90;;;;;;5115360;28;20023;-70
2023/05/09 09:07:48;;;;;;;8.52;2.05;;;16.20;99.90;;;;;;5114792;28;20532;-70
2023/05/09 09:10:15;;;;;;;8.15;2.30;;;16.30;99.90;;;;;;5096781;28;20123;-70
2023/05/09 09:12:42;;;;;;;6.97;2.03;;;16.30;99.90;;;;;;5094129;28;20036;-71
2023/05/09 09:15:13;;;;;;;8.02;2.20;;;16.40;99.90;;;;;;5094410;28;20030;-70
2023/05/09 09:17:41;;;;;;;11.00;2.25;;;16.50;99.90;;;;;;5094929;28;20028;-71
2023/05/09 09:20:10;;;;;;;6.85;1.92;;;16.50;99.90;;;;;;5094346;28;20023;-70
2023/05/09 09:22:40;;;;;;;8.98;1.90;;;16.60;99.90;;;;;;5093826;28;20062;-70
2023/05/09 09:25:06;;;;;;;8.52;1.70;;;16.70;99.90;;;;;;5093883;28;20071;-70
2023/05/09 09:27:32;;;;;;;7.53;1.50;;;16.70;99.90;;;;;;5094090;28;20132;-70
2023/05/09 09:30:08;;;;;;;11.35;2.00;;;16.70;99.90;;;;;;5094802;28;20035;-70
2023/05/09 09:32:35;;;;;;;6.75;1.55;;;16.70;99.90;;;;;;5094055;28;20036;-70
2023/05/09 09:35:05;;;;;;;7.30;1.50;;;16.70;99.90;;;;;;5075974;28;20031;-70
2023/05/09 09:37:34;;;;;;;8.65;1.70;;;16.70;99.90;;;;;;5093870;28;20024;-70
2023/05/09 09:40:00;;;;;;;9.95;1.95;;;16.80;99.90;;;;;;5094300;28;20020;-70
2023/05/09 09:42:25;;;;;;;5.32;1.58;;;16.90;99.90;;;;;;5094038;28;20024;-70
2023/05/09 09:45:02;;;;;;;7.75;1.50;;;16.90;99.90;;;;;;5094457;28;20531;-67
2023/05/09 09:47:32;;;;;;;7.90;1.63;;;17.00;99.90;;;;;;5093182;28;20129;-69
2023/05/09 09:50:07;;;;;;;6.90;1.60;;;17.10;99.90;;;;;;5094234;28;20027;-69
2023/05/09 09:52:33;;;;;;;6.20;1.40;;;17.00;99.90;;;;;;5093655;28;20020;-69
2023/05/09 09:54:59;;;;;;;6.10;1.33;;;17.00;99.90;;;;;;5093870;28;20031;-70
2023/05/09 09:57:36;;;;;;;6.88;1.63;;;17.00;99.90;;;;;;5094018;28;20101;-69
2023/05/09 10:00:02;;;;;;;6.20;1.52;;;17.00;99.90;;;;;;5093882;28;20055;-70
2023/05/09 10:02:28;;;;;;;7.38;1.50;;;16.90;99.90;;;;;;5093620;28;20057;-70
2023/05/09 10:04:54;;;;;;;6.78;1.40;;;16.90;99.90;;;;;;5093559;28;20043;-69
2023/05/09 10:07:22;;;;;;;6.05;1.45;;;17.00;99.90;;;;;;5093613;28;20020;-69
2023/05/09 10:09:48;;;;;;;5.38;1.20;;;16.90;99.90;;;;;;5107815;28;20481;-68
2023/05/09 10:12:18;;;;;;;5.53;1.25;;;17.00;99.90;;;;;;5113741;28;20040;-69
2023/05/09 10:14:44;;;;;;;6.18;1.58;;;17.00;99.90;;;;;;5114024;28;20027;-69
2023/05/09 10:17:13;;;;;;;5.05;1.20;;;17.10;99.90;;;;;;5114286;28;20051;-69
2023/05/09 10:19:44;;;;;;;8.32;1.70;;;17.10;99.90;;;;;;5113720;28;20050;-67
2023/05/09 10:22:12;;;;;;;5.22;1.50;;;17.10;99.90;;;;;;5113582;28;20049;-68
2023/05/09 10:24:55;;;;;;;6.43;1.92;;;17.10;99.90;;;;;;5113436;28;20046;-69
2023/05/09 10:27:25;;;;;;;5.85;1.27;;;17.00;99.90;;;;;;5113598;28;20030;-69
2023/05/09 10:30:02;;;;;;;6.40;1.50;;;17.00;99.90;;;;;;5113905;28;20526;-69
2023/05/09 10:33:01;;;;;;;5.90;1.58;;;16.90;99.90;;;;;;5113292;28;20031;-68
2023/05/09 10:35:32;;;;;;;5.20;1.52;;;16.80;99.90;;;;;;5113070;28;20023;-68
2023/05/09 10:38:00;;;;;;;5.88;1.20;;;16.80;99.90;;;;;;5113285;28;20035;-67
2023/05/09 10:40:27;;;;;;;7.32;1.48;;;16.90;99.90;;;;;;5095361;28;20408;-68
2023/05/09 10:42:53;;;;;;;4.50;1.20;;;16.90;99.90;;;;;;5113116;28;20036;-67
2023/05/09 10:45:20;;;;;;;5.30;1.30;;;16.90;99.90;;;;;;5113226;28;20125;-68
2023/05/09 10:47:48;;;;;;;8.68;1.75;;;16.90;99.90;;;;;;5112870;28;20588;-68
2023/05/09 10:50:15;;;;;;;3.90;1.23;;;16.90;99.90;;;;;;5112661;28;20530;-68
2023/05/09 10:53:17;;;;;;;7.53;1.33;;;16.80;99.90;;;;;;5113141;28;20050;-68
2023/05/09 10:55:46;;;;;;;8.23;1.70;;;16.80;99.90;;;;;;5113015;28;20027;-68
2023/05/09 10:58:26;;;;;;;7.22;1.52;;;16.90;99.90;;;;;;5113241;28;20055;-68
2023/05/09 11:00:57;;;;;;;7.88;1.60;;;17.00;99.90;;;;;;5113274;28;20135;-67
2023/05/09 11:03:27;;;;;;;9.07;1.65;;;17.00;99.90;;;;;;5112544;28;20126;-67
2023/05/09 11:05:55;;;;;;;7.85;1.30;;;17.00;99.90;;;;;;5112456;28;20020;-68
2023/05/09 11:08:29;;;;;;;4.78;1.55;;;17.00;99.90;;;;;;5112487;28;20027;-68
2023/05/09 11:10:56;;;;;;;5.40;1.25;;;17.00;99.90;;;;;;5112544;28;20054;-68
2023/05/09 11:13:24;;;;;;;6.13;1.40;;;16.90;99.90;;;;;;5112508;28;20048;-67
2023/05/09 11:15:52;;;;;;;7.18;1.60;;;16.90;99.90;;;;;;5112411;28;20076;-67
2023/05/09 11:18:18;;;;;;;6.28;1.42;;;16.90;99.90;;;;;;5112521;28;20419;-67
2023/05/09 11:20:47;;;;;;;6.38;1.45;;;17.10;99.90;;;;;;5112431;28;20023;-67
2023/05/09 11:23:29;;;;;;;5.93;1.60;;;17.20;99.90;;;;;;5112289;28;20059;-67
2023/05/09 11:26:04;;;;;;;4.20;1.13;;;17.20;99.90;;;;;;5112348;28;20032;-67
2023/05/09 11:28:33;;;;;;;8.52;1.77;;;17.40;99.90;;;;;;5112482;28;20016;-67
2023/05/09 11:31:15;;;;;;;8.70;1.40;;;17.50;99.90;;;;;;5111917;28;20046;-67
2023/05/09 11:33:46;;;;;;;6.57;1.60;;;17.50;99.90;;;;;;5111096;28;20051;-66
2023/05/09 11:36:24;;;;;;;8.52;1.65;;;17.60;99.90;;;;;;5111800;28;20035;-68
2023/05/09 11:39:02;;;;;;;7.32;1.88;;;17.70;99.90;;;;;;5112213;28;20024;-68
2023/05/09 11:41:28;;;;;;;6.85;1.70;;;17.80;99.90;;;;;;5094087;28;20114;-67
2023/05/09 11:43:55;;;;;;;5.53;1.30;;;17.90;99.90;;;;;;5112006;28;20032;-67
2023/05/09 11:46:21;;;;;;;8.45;1.55;;;17.90;99.90;;;;;;5111929;28;20023;-67
2023/05/09 11:48:47;;;;;;;7.68;2.08;;;17.80;99.90;;;;;;5111533;28;20511;-67
2023/05/09 11:51:18;;;;;;;10.10;2.17;;;17.90;99.90;;;;;;5111954;28;20020;-67
2023/05/09 11:53:48;;;;;;;4.45;1.40;;;17.90;99.90;;;;;;5111971;28;20472;-67
2023/05/09 11:56:15;;;;;;;6.75;1.48;;;18.10;99.90;;;;;;5111872;28;20028;-67
2023/05/09 11:58:42;;;;;;;5.68;1.70;;;18.20;99.90;;;;;;5112272;28;20110;-67
2023/05/09 12:01:10;;;;;;;7.35;1.75;;;18.30;99.90;;;;;;5111799;28;20465;-67
2023/05/09 12:03:42;;;;;;;5.57;1.50;;;18.30;99.90;;;;;;5111189;28;20062;-67
2023/05/09 12:06:08;;;;;;;4.28;1.40;;;18.20;99.90;;;;;;5111591;28;20022;-67
2023/05/09 12:08:35;;;;;;;6.13;1.83;;;18.10;99.90;;;;;;5106110;28;20036;-68
2023/05/09 12:11:07;;;;;;;6.55;1.70;;;18.00;99.90;;;;;;5101398;28;20033;-67
2023/05/09 12:13:34;;;;;;;8.60;2.03;;;18.10;99.90;;;;;;5103366;28;20139;-68
2023/05/09 12:16:01;;;;;;;7.38;1.40;;;18.40;99.90;;;;;;5091247;28;20115;-67
2023/05/09 12:18:26;;;;;;;8.32;1.60;;;18.40;99.90;;;;;;5090826;28;20028;-68
2023/05/09 12:20:52;;;;;;;6.07;1.60;;;18.60;99.90;;;;;;5091094;28;20489;-70
2023/05/09 12:23:18;;;;;;;7.53;1.80;;;18.50;99.90;;;;;;5091329;28;20028;-70
2023/05/09 12:25:51;;;;;;;5.68;1.83;;;18.70;99.90;;;;;;5091283;28;20035;-69
2023/05/09 12:28:18;;;;;;;5.00;1.37;;;18.70;99.90;;;;;;5091035;28;20053;-69
2023/05/09 12:30:44;;;;;;;4.50;1.30;;;18.70;99.90;;;;;;5091096;28;20127;-69
2023/05/09 12:33:11;;;;;;;4.55;1.45;;;18.60;99.90;;;;;;5097544;28;20127;-69
2023/05/09 12:35:38;;;;;;;4.25;1.30;;;18.70;99.90;;;;;;5111243;28;20119;-70
2023/05/09 12:38:04;;;;;;;3.65;1.15;;;18.90;99.90;;;;;;5111640;28;20053;-68
2023/05/09 12:40:30;;;;;;;6.32;1.40;;;18.90;99.90;;;;;;5111395;28;20032;-69
2023/05/09 12:43:01;;;;;;;5.15;1.30;;;18.90;99.90;;;;;;5111645;28;20502;-69